sensor_id;sensor_type;location;lat;lon;timestamp;pressure;altitude;pressure_sealevel;temperature;humidity
71057;BME280;58380;48.312;9.246;2024-03-02T07:41:17;92495.94;;;2.90;100.00
71057;BME280;58380;48.312;9.246;2024-03-02T07:44:18;92485.59;;;2.95;100.00
71057;BME280;58380;48.312;9.246;2024-03-02T07:47:19;92458.50;;;2.79;100.00
71057;BME280;58380;48.312;9.246;2024-03-02T07:50:19;92486.59;;;2.94;100.00
71057;BME280;58380;48.312;9.246;2024-03-02T07:53:19;92491.78;;;3.11;100.00
71057;BME280;58380;48.312;9.246;2024-03-02T07:56:20;92472.06;;;2.98;100.00
71057;BME280;58380;48.312;9.246;2024-03-02T07:59:22;92481.69;;;3.15;100.00
71057;BME280;58380;48.312;9.246;2024-03-02T08:02:22;92477.56;;;3.19;100.00
71057;BME280;58380;48.312;9.246;2024-03-02T08:05:23;92481.03;;;3.24;100.00
71057;BME280;58380;48.312;9.246;2024-03-02T08:08:23;92451.97;;;3.16;100.00
71057;BME280;58380;48.312;9.246;2024-03-02T08:11:24;92457.63;;;3.30;100.00
71057;BME280;58380;48.312;9.246;2024-03-02T08:14:24;92470.00;;;3.39;100.00
71057;BME280;58380;48.312;9.246;2024-03-02T08:17:25;92487.38;;;3.51;100.00
71057;BME280;58380;48.312;9.246;2024-03-02T08:20:25;92485.66;;;3.61;100.00
71057;BME280;58380;48.312;9.246;2024-03-02T08:23:26;92481.16;;;3.79;100.00
71057;BME280;58380;48.312;9.246;2024-03-02T08:26:27;92481.00;;;3.85;100.00
71057;BME280;58380;48.312;9.246;2024-03-02T08:29:29;92462.72;;;3.85;100.00
71057;BME280;58380;48.312;9.246;2024-03-02T08:32:30;92461.50;;;3.93;100.00
71057;BME280;58380;48.312;9.246;2024-03-02T08:35:30;92458.44;;;4.01;100.00
71057;BME280;58380;48.312;9.246;2024-03-02T08:38:35;92463.63;;;4.23;100.00
71057;BME280;58380;48.312;9.246;2024-03-02T08:41:36;92434.28;;;4.16;100.00
71057;BME280;58380;48.312;9.246;2024-03-02T08:44:36;92435.19;;;4.27;100.00
71057;BME280;58380;48.312;9.246;2024-03-02T08:47:37;92458.91;;;4.52;100.00
71057;BME280;58380;48.312;9.246;2024-03-02T08:50:37;92458.13;;;4.52;100.00
71057;BME280;58380;48.312;9.246;2024-03-02T08:53:37;92452.09;;;4.51;100.00
71057;BME280;58380;48.312;9.246;2024-03-02T08:56:38;92445.88;;;4.58;100.00
71057;BME280;58380;48.312;9.246;2024-03-02T08:59:39;92469.31;;;4.80;100.00
71057;BME280;58380;48.312;9.246;2024-03-02T09:02:39;92469.63;;;4.88;100.00
71057;BME280;58380;48.312;9.246;2024-03-02T09:05:39;92473.63;;;5.01;100.00
71057;BME280;58380;48.312;9.246;2024-03-02T09:08:40;92476.66;;;5.20;100.00
71057;BME280;58380;48.312;9.246;2024-03-02T09:11:40;92462.47;;;5.11;100.00
71057;BME280;58380;48.312;9.246;2024-03-02T09:14:41;92474.28;;;5.18;100.00
71057;BME280;58380;48.312;9.246;2024-03-02T09:17:41;92460.94;;;5.20;100.00
71057;BME280;58380;48.312;9.246;2024-03-02T09:20:42;92449.00;;;5.34;100.00
71057;BME280;58380;48.312;9.246;2024-03-02T09:23:42;92450.84;;;5.44;100.00
71057;BME280;58380;48.312;9.246;2024-03-02T09:26:44;92414.41;;;5.22;100.00
71057;BME280;58380;48.312;9.246;2024-03-02T09:29:44;92457.25;;;5.69;100.00
71057;BME280;58380;48.312;9.246;2024-03-02T09:32:45;92458.31;;;5.73;100.00
71057;BME280;58380;48.312;9.246;2024-03-02T09:35:45;92437.34;;;5.62;100.00
71057;BME280;58380;48.312;9.246;2024-03-02T09:38:46;92417.66;;;5.50;100.00
71057;BME280;58380;48.312;9.246;2024-03-02T09:41:47;92450.25;;;5.90;100.00
71057;BME280;58380;48.312;9.246;2024-03-02T09:44:48;92371.09;;;5.52;100.00
71057;BME280;58380;48.312;9.246;2024-03-02T09:47:49;92454.28;;;6.18;100.00
71057;BME280;58380;48.312;9.246;2024-03-02T09:50:49;92456.91;;;6.28;100.00
71057;BME280;58380;48.312;9.246;2024-03-02T09:53:50;92452.47;;;6.39;100.00
71057;BME280;58380;48.312;9.246;2024-03-02T09:56:50;92435.44;;;6.41;100.00
71057;BME280;58380;48.312;9.246;2024-03-02T09:59:51;92436.25;;;6.57;99.71
71057;BME280;58380;48.312;9.246;2024-03-02T10:02:52;92434.16;;;6.64;100.00
71057;BME280;58380;48.312;9.246;2024-03-02T10:05:52;92444.38;;;6.81;99.28
71057;BME280;58380;48.312;9.246;2024-03-02T10:08:54;92434.13;;;6.95;100.00
71057;BME280;58380;48.312;9.246;2024-03-02T10:12:03;92440.97;;;7.06;93.05
71057;BME280;58380;48.312;9.246;2024-03-02T10:15:06;92433.56;;;7.19;95.03
71057;BME280;58380;48.312;9.246;2024-03-02T10:18:11;92414.94;;;7.25;93.26
71057;BME280;58380;48.312;9.246;2024-03-02T10:21:13;92411.22;;;7.42;93.80
71057;BME280;58380;48.312;9.246;2024-03-02T10:24:15;92405.16;;;7.46;95.17
71057;BME280;58380;48.312;9.246;2024-03-02T10:27:23;92393.81;;;7.56;93.67
71057;BME280;58380;48.312;9.246;2024-03-02T10:30:27;92395.84;;;7.74;97.74
71057;BME280;58380;48.312;9.246;2024-03-02T10:33:28;92370.88;;;7.77;98.47
71057;BME280;58380;48.312;9.246;2024-03-02T10:36:28;92394.59;;;8.11;96.61
71057;BME280;58380;48.312;9.246;2024-03-02T10:39:29;92379.53;;;8.22;97.15
71057;BME280;58380;48.312;9.246;2024-03-02T10:42:31;92381.03;;;8.33;94.50
71057;BME280;58380;48.312;9.246;2024-03-02T10:45:32;92394.88;;;8.54;93.65
71057;BME280;58380;48.312;9.246;2024-03-02T10:48:34;92391.31;;;8.69;97.41
71057;BME280;58380;48.312;9.246;2024-03-02T10:51:36;92389.81;;;8.92;95.45
71057;BME280;58380;48.312;9.246;2024-03-02T10:54:37;92325.38;;;8.60;91.75
71057;BME280;58380;48.312;9.246;2024-03-02T10:57:50;92373.28;;;8.87;90.90
71057;BME280;58380;48.312;9.246;2024-03-02T11:00:52;92365.00;;;8.98;90.62
71057;BME280;58380;48.312;9.246;2024-03-02T11:03:53;92363.91;;;9.04;88.91
71057;BME280;58380;48.312;9.246;2024-03-02T11:06:59;92356.09;;;9.18;91.80
71057;BME280;58380;48.312;9.246;2024-03-02T11:10:05;92349.94;;;9.28;89.22
71057;BME280;58380;48.312;9.246;2024-03-02T11:13:09;92355.22;;;9.28;82.50
71057;BME280;58380;48.312;9.246;2024-03-02T11:16:19;92342.78;;;9.10;81.19
71057;BME280;58380;48.312;9.246;2024-03-02T11:19:33;92356.41;;;9.17;83.39
71057;BME280;58380;48.312;9.246;2024-03-02T11:22:36;92340.25;;;9.23;84.07
71057;BME280;58380;48.312;9.246;2024-03-02T11:25:37;92341.44;;;9.36;88.71
71057;BME280;58380;48.312;9.246;2024-03-02T11:28:39;92340.03;;;9.44;84.85
71057;BME280;58380;48.312;9.246;2024-03-02T11:31:58;92346.28;;;9.48;86.99
71057;BME280;58380;48.312;9.246;2024-03-02T11:35:02;92327.31;;;9.51;88.26
71057;BME280;58380;48.312;9.246;2024-03-02T11:38:03;92319.03;;;9.39;83.87
71057;BME280;58380;48.312;9.246;2024-03-02T11:41:07;92323.09;;;9.50;84.37
71057;BME280;58380;48.312;9.246;2024-03-02T11:44:08;92312.41;;;9.41;84.35
71057;BME280;58380;48.312;9.246;2024-03-02T11:47:14;92333.56;;;9.55;87.84
71057;BME280;58380;48.312;9.246;2024-03-02T11:50:15;92317.25;;;9.53;80.65
71057;BME280;58380;48.312;9.246;2024-03-02T11:53:28;92322.03;;;9.51;83.06
71057;BME280;58380;48.312;9.246;2024-03-02T11:56:32;92309.72;;;9.46;85.23
71057;BME280;58380;48.312;9.246;2024-03-02T11:59:33;92301.44;;;9.34;86.80
71057;BME280;58380;48.312;9.246;2024-03-02T12:02:34;92303.13;;;9.25;83.34
71057;BME280;58380;48.312;9.246;2024-03-02T12:05:35;92298.56;;;9.31;81.53
71057;BME280;58380;48.312;9.246;2024-03-02T12:08:36;92265.75;;;9.23;78.54
71057;BME280;58380;48.312;9.246;2024-03-02T12:11:36;92288.59;;;9.27;75.57
71057;BME280;58380;48.312;9.246;2024-03-02T12:14:38;92298.81;;;9.34;77.25
71057;BME280;58380;48.312;9.246;2024-03-02T12:17:38;92293.31;;;9.31;76.82
71057;BME280;58380;48.312;9.246;2024-03-02T12:20:39;92283.91;;;9.24;75.64
71057;BME280;58380;48.312;9.246;2024-03-02T12:23:39;92285.13;;;9.32;79.25
71057;BME280;58380;48.312;9.246;2024-03-02T12:26:39;92279.22;;;9.40;73.13
71057;BME280;58380;48.312;9.246;2024-03-02T12:29:40;92281.44;;;9.52;79.10
71057;BME280;58380;48.312;9.246;2024-03-02T12:32:41;92254.66;;;9.26;71.40
71057;BME280;58380;48.312;9.246;2024-03-02T12:35:41;92278.09;;;9.46;69.41
71057;BME280;58380;48.312;9.246;2024-03-02T12:38:45;92277.25;;;9.51;73.29
71057;BME280;58380;48.312;9.246;2024-03-02T12:41:46;92260.44;;;9.47;73.50
71057;BME280;58380;48.312;9.246;2024-03-02T12:44:47;92275.97;;;9.48;70.82
71057;BME280;58380;48.312;9.246;2024-03-02T12:47:47;92272.91;;;9.41;70.66
71057;BME280;58380;48.312;9.246;2024-03-02T12:50:48;92242.84;;;9.42;74.34
71057;BME280;58380;48.312;9.246;2024-03-02T12:53:56;92256.75;;;9.67;73.81
71057;BME280;58380;48.312;9.246;2024-03-02T12:56:58;92241.28;;;9.60;72.61
71057;BME280;58380;48.312;9.246;2024-03-02T13:00:02;92256.09;;;9.75;75.21
71057;BME280;58380;48.312;9.246;2024-03-02T13:03:09;92255.78;;;9.96;74.48
71057;BME280;58380;48.312;9.246;2024-03-02T13:06:09;92250.25;;;9.97;72.83
71057;BME280;58380;48.312;9.246;2024-03-02T13:09:10;92231.25;;;9.81;73.17
71057;BME280;58380;48.312;9.246;2024-03-02T13:12:16;92227.41;;;9.74;71.69
71057;BME280;58380;48.312;9.246;2024-03-02T13:15:17;92249.97;;;9.80;70.44
71057;BME280;58380;48.312;9.246;2024-03-02T13:18:18;92246.50;;;9.65;71.25
71057;BME280;58380;48.312;9.246;2024-03-02T13:21:18;92246.06;;;9.77;71.44
71057;BME280;58380;48.312;9.246;2024-03-02T13:24:18;92236.13;;;9.88;70.63
71057;BME280;58380;48.312;9.246;2024-03-02T13:27:20;92249.38;;;10.02;71.82
71057;BME280;58380;48.312;9.246;2024-03-02T13:30:21;92241.41;;;10.07;71.35
71057;BME280;58380;48.312;9.246;2024-03-02T13:33:21;92229.69;;;10.32;69.47
71057;BME280;58380;48.312;9.246;2024-03-02T13:36:24;92216.41;;;10.37;70.85
71057;BME280;58380;48.312;9.246;2024-03-02T13:39:25;92224.69;;;10.30;70.23
71057;BME280;58380;48.312;9.246;2024-03-02T13:42:25;92235.59;;;10.24;67.02
71057;BME280;58380;48.312;9.246;2024-03-02T13:45:27;92218.66;;;10.11;66.42
71057;BME280;58380;48.312;9.246;2024-03-02T13:48:28;92222.00;;;10.17;62.63
71057;BME280;58380;48.312;9.246;2024-03-02T13:51:28;92210.44;;;10.12;66.17
71057;BME280;58380;48.312;9.246;2024-03-02T13:54:29;92204.56;;;10.02;65.76
71057;BME280;58380;48.312;9.246;2024-03-02T13:57:30;92210.44;;;10.12;62.90
71057;BME280;58380;48.312;9.246;2024-03-02T14:00:30;92209.47;;;10.08;63.61
71057;BME280;58380;48.312;9.246;2024-03-02T14:03:31;92210.94;;;10.14;63.77
71057;BME280;58380;48.312;9.246;2024-03-02T14:06:31;92215.38;;;10.19;61.65
71057;BME280;58380;48.312;9.246;2024-03-02T14:09:32;92209.09;;;10.15;65.27
71057;BME280;58380;48.312;9.246;2024-03-02T14:12:32;92178.41;;;10.05;63.44
71057;BME280;58380;48.312;9.246;2024-03-02T14:15:33;92177.44;;;10.15;64.06
71057;BME280;58380;48.312;9.246;2024-03-02T14:18:33;92197.88;;;10.23;65.81
71057;BME280;58380;48.312;9.246;2024-03-02T14:21:34;92184.78;;;10.18;67.59
71057;BME280;58380;48.312;9.246;2024-03-02T14:24:35;92204.56;;;10.34;67.34
71057;BME280;58380;48.312;9.246;2024-03-02T14:27:36;92176.00;;;10.09;66.23
71057;BME280;58380;48.312;9.246;2024-03-02T14:30:36;92180.47;;;10.08;68.15
71057;BME280;58380;48.312;9.246;2024-03-02T14:33:37;92166.41;;;10.13;65.40
71057;BME280;58380;48.312;9.246;2024-03-02T14:36:37;92167.50;;;10.12;63.75
71057;BME280;58380;48.312;9.246;2024-03-02T14:39:38;92170.44;;;10.24;62.08
71057;BME280;58380;48.312;9.246;2024-03-02T14:42:39;92165.38;;;10.28;58.63
71057;BME280;58380;48.312;9.246;2024-03-02T14:45:39;92161.63;;;10.01;57.59
71057;BME280;58380;48.312;9.246;2024-03-02T14:48:40;92170.44;;;10.24;59.67
71057;BME280;58380;48.312;9.246;2024-03-02T14:51:40;92135.06;;;10.11;58.34
71057;BME280;58380;48.312;9.246;2024-03-02T14:54:41;92147.38;;;10.16;58.51
71057;BME280;58380;48.312;9.246;2024-03-02T14:57:42;92134.19;;;10.02;57.94
71057;BME280;58380;48.312;9.246;2024-03-02T15:00:43;92174.41;;;10.08;59.33
71057;BME280;58380;48.312;9.246;2024-03-02T15:03:43;92163.94;;;10.03;59.70
71057;BME280;58380;48.312;9.246;2024-03-02T15:06:44;92143.00;;;9.79;58.81
71057;BME280;58380;48.312;9.246;2024-03-02T15:09:44;92164.81;;;9.98;63.26
71057;BME280;58380;48.312;9.246;2024-03-02T15:12:45;92143.00;;;9.79;61.15
71057;BME280;58380;48.312;9.246;2024-03-02T15:15:45;92152.88;;;9.87;58.46
71057;BME280;58380;48.312;9.246;2024-03-02T15:18:46;92156.38;;;9.82;63.48
71057;BME280;58380;48.312;9.246;2024-03-02T15:21:46;92146.09;;;9.67;61.39
71057;BME280;58380;48.312;9.246;2024-03-02T15:24:47;92128.88;;;9.56;62.00
71057;BME280;58380;48.312;9.246;2024-03-02T15:27:47;92132.50;;;9.60;61.27
71057;BME280;58380;48.312;9.246;2024-03-02T15:30:47;92120.06;;;9.46;64.00
71057;BME280;58380;48.312;9.246;2024-03-02T15:33:48;92156.03;;;9.56;64.91
71057;BME280;58380;48.312;9.246;2024-03-02T15:36:49;92161.22;;;9.61;64.27
71057;BME280;58380;48.312;9.246;2024-03-02T15:39:50;92143.13;;;9.55;66.65
71057;BME280;58380;48.312;9.246;2024-03-02T15:42:50;92129.63;;;9.42;68.12
71057;BME280;58380;48.312;9.246;2024-03-02T15:45:50;92136.06;;;9.50;69.57
71057;BME280;58380;48.312;9.246;2024-03-02T15:48:51;92123.56;;;9.42;72.89
71057;BME280;58380;48.312;9.246;2024-03-02T15:51:51;92115.19;;;9.21;75.81
71057;BME280;58380;48.312;9.246;2024-03-02T15:54:52;92137.59;;;9.37;78.39
71057;BME280;58380;48.312;9.246;2024-03-02T15:57:52;92130.34;;;9.29;81.84
71057;BME280;58380;48.312;9.246;2024-03-02T16:00:52;92118.22;;;9.28;83.55
71057;BME280;58380;48.312;9.246;2024-03-02T16:03:53;92119.09;;;9.23;84.81
71057;BME280;58380;48.312;9.246;2024-03-02T16:06:53;92128.22;;;9.31;85.93
71057;BME280;58380;48.312;9.246;2024-03-02T16:09:54;92133.06;;;9.24;87.14
71057;BME280;58380;48.312;9.246;2024-03-02T16:12:54;92125.94;;;9.24;88.45
71057;BME280;58380;48.312;9.246;2024-03-02T16:15:59;92118.25;;;9.09;89.16
71057;BME280;58380;48.312;9.246;2024-03-02T16:18:59;92130.00;;;9.17;90.07
71057;BME280;58380;48.312;9.246;2024-03-02T16:22:00;92113.63;;;9.01;90.67
71057;BME280;58380;48.312;9.246;2024-03-02T16:25:00;92121.44;;;9.06;92.29
71057;BME280;58380;48.312;9.246;2024-03-02T16:28:01;92127.59;;;9.01;93.24
71057;BME280;58380;48.312;9.246;2024-03-02T16:31:03;92108.44;;;8.77;94.38
71057;BME280;58380;48.312;9.246;2024-03-02T16:34:04;92104.16;;;8.81;94.40
71057;BME280;58380;48.312;9.246;2024-03-02T16:37:04;92118.81;;;8.87;94.76
71057;BME280;58380;48.312;9.246;2024-03-02T16:40:05;92119.16;;;8.80;95.69
71057;BME280;58380;48.312;9.246;2024-03-02T16:43:06;92120.66;;;8.68;95.98
71057;BME280;58380;48.312;9.246;2024-03-02T16:46:08;92121.16;;;8.70;96.76
71057;BME280;58380;48.312;9.246;2024-03-02T16:49:09;92117.31;;;8.62;97.20
71057;BME280;58380;48.312;9.246;2024-03-02T16:52:09;92124.91;;;8.63;97.55
71057;BME280;58380;48.312;9.246;2024-03-02T16:55:10;92125.81;;;8.54;97.49
71057;BME280;58380;48.312;9.246;2024-03-02T16:58:10;92119.50;;;8.55;98.07
71057;BME280;58380;48.312;9.246;2024-03-02T17:01:10;92126.31;;;8.56;98.74
71057;BME280;58380;48.312;9.246;2024-03-02T17:04:11;92119.88;;;8.43;99.06
71057;BME280;58380;48.312;9.246;2024-03-02T17:07:11;92110.25;;;8.33;99.35
71057;BME280;58380;48.312;9.246;2024-03-02T17:10:12;92119.19;;;8.32;100.00
71057;BME280;58380;48.312;9.246;2024-03-02T17:13:12;92095.97;;;8.15;100.00
71057;BME280;58380;48.312;9.246;2024-03-02T17:16:13;92114.31;;;8.20;100.00
71057;BME280;58380;48.312;9.246;2024-03-02T17:19:17;92120.34;;;8.21;100.00
71057;BME280;58380;48.312;9.246;2024-03-02T17:22:18;92120.41;;;8.16;100.00
71057;BME280;58380;48.312;9.246;2024-03-02T17:25:18;92099.28;;;8.02;100.00
71057;BME280;58380;48.312;9.246;2024-03-02T17:28:23;92115.00;;;8.07;100.00
71057;BME280;58380;48.312;9.246;2024-03-02T17:31:25;92098.84;;;7.95;100.00
71057;BME280;58380;48.312;9.246;2024-03-02T17:34:26;92098.31;;;7.93;100.00
71057;BME280;58380;48.312;9.246;2024-03-02T17:37:27;92113.03;;;7.94;100.00
71057;BME280;58380;48.312;9.246;2024-03-02T17:40:28;92111.50;;;7.88;100.00
71057;BME280;58380;48.312;9.246;2024-03-02T17:43:28;92104.81;;;7.76;100.00
71057;BME280;58380;48.312;9.246;2024-03-02T17:46:29;92100.94;;;7.69;100.00
71057;BME280;58380;48.312;9.246;2024-03-02T17:49:29;92106.91;;;7.74;100.00
71057;BME280;58380;48.312;9.246;2024-03-02T17:52:29;92086.53;;;7.61;100.00
71057;BME280;58380;48.312;9.246;2024-03-02T17:55:30;92091.34;;;7.54;100.00
71057;BME280;58380;48.312;9.246;2024-03-02T17:58:31;92088.72;;;7.54;100.00
71057;BME280;58380;48.312;9.246;2024-03-02T18:01:32;92085.53;;;7.57;100.00
71057;BME280;58380;48.312;9.246;2024-03-02T18:04:33;92102.50;;;7.70;100.00
71057;BME280;58380;48.312;9.246;2024-03-02T18:07:33;92078.81;;;7.46;100.00
71057;BME280;58380;48.312;9.246;2024-03-02T18:10:36;92099.00;;;7.50;100.00
71057;BME280;58380;48.312;9.246;2024-03-02T18:13:36;92093.81;;;7.40;100.00
71057;BME280;58380;48.312;9.246;2024-03-02T18:16:37;92110.50;;;7.54;100.00
71057;BME280;58380;48.312;9.246;2024-03-02T18:19:37;92094.56;;;7.46;100.00
71057;BME280;58380;48.312;9.246;2024-03-02T18:22:37;92098.00;;;7.46;100.00
71057;BME280;58380;48.312;9.246;2024-03-02T18:25:38;92087.03;;;7.39;100.00
71057;BME280;58380;48.312;9.246;2024-03-02T18:28:38;92082.00;;;7.43;100.00
71057;BME280;58380;48.312;9.246;2024-03-02T18:31:40;92102.34;;;7.56;100.00
71057;BME280;58380;48.312;9.246;2024-03-02T18:34:40;92081.25;;;7.37;100.00
71057;BME280;58380;48.312;9.246;2024-03-02T18:37:41;92093.31;;;7.38;100.00
71057;BME280;58380;48.312;9.246;2024-03-02T18:40:43;92090.94;;;7.42;100.00
71057;BME280;58380;48.312;9.246;2024-03-02T18:43:47;92087.56;;;7.36;100.00
71057;BME280;58380;48.312;9.246;2024-03-02T18:46:48;92078.22;;;7.25;100.00
71057;BME280;58380;48.312;9.246;2024-03-02T18:49:48;92080.56;;;7.21;100.00
71057;BME280;58380;48.312;9.246;2024-03-02T18:52:48;92093.69;;;7.26;100.00
71057;BME280;58380;48.312;9.246;2024-03-02T18:55:49;92077.44;;;7.24;100.00
71057;BME280;58380;48.312;9.246;2024-03-02T18:58:49;92070.13;;;7.16;100.00
71057;BME280;58380;48.312;9.246;2024-03-02T19:01:50;92080.34;;;7.18;100.00
71057;BME280;58380;48.312;9.246;2024-03-02T19:04:51;92080.56;;;7.21;100.00
71057;BME280;58380;48.312;9.246;2024-03-02T19:07:51;92062.84;;;7.08;100.00
71057;BME280;58380;48.312;9.246;2024-03-02T19:10:52;92080.13;;;7.14;100.00
71057;BME280;58380;48.312;9.246;2024-03-02T19:13:53;92073.63;;;7.06;100.00
71057;BME280;58380;48.312;9.246;2024-03-02T19:16:53;92068.09;;;7.08;100.00
71057;BME280;58380;48.312;9.246;2024-03-02T19:19:54;92070.25;;;7.01;100.00
71057;BME280;58380;48.312;9.246;2024-03-02T19:22:54;92076.84;;;6.93;100.00
71057;BME280;58380;48.312;9.246;2024-03-02T19:25:55;92067.81;;;6.75;100.00
71057;BME280;58380;48.312;9.246;2024-03-02T19:28:56;92062.81;;;6.74;100.00
71057;BME280;58380;48.312;9.246;2024-03-02T19:31:57;92074.81;;;6.85;100.00
71057;BME280;58380;48.312;9.246;2024-03-02T19:34:57;92078.03;;;6.77;100.00
71057;BME280;58380;48.312;9.246;2024-03-02T19:37:58;92070.47;;;6.70;100.00
71057;BME280;58380;48.312;9.246;2024-03-02T19:40:58;92063.69;;;6.59;100.00
71057;BME280;58380;48.312;9.246;2024-03-02T19:43:59;92073.66;;;6.62;100.00
71057;BME280;58380;48.312;9.246;2024-03-02T19:46:59;92069.47;;;6.56;100.00
71057;BME280;58380;48.312;9.246;2024-03-02T19:50:00;92058.75;;;6.57;100.00
71057;BME280;58380;48.312;9.246;2024-03-02T19:53:00;92049.88;;;6.48;100.00
71057;BME280;58380;48.312;9.246;2024-03-02T19:56:03;92035.00;;;6.33;100.00
71057;BME280;58380;48.312;9.246;2024-03-02T19:59:03;92043.38;;;6.35;100.00
71057;BME280;58380;48.312;9.246;2024-03-02T20:02:04;92054.34;;;6.42;100.00
71057;BME280;58380;48.312;9.246;2024-03-02T20:05:10;92054.97;;;6.29;100.00
71057;BME280;58380;48.312;9.246;2024-03-02T20:08:12;92047.91;;;6.24;100.00
71057;BME280;58380;48.312;9.246;2024-03-02T20:11:12;92047.34;;;6.28;100.00
71057;BME280;58380;48.312;9.246;2024-03-02T20:14:13;92057.31;;;6.25;100.00
71057;BME280;58380;48.312;9.246;2024-03-02T20:17:14;92051.31;;;6.25;100.00
71057;BME280;58380;48.312;9.246;2024-03-02T20:20:15;92048.72;;;6.20;100.00
71057;BME280;58380;48.312;9.246;2024-03-02T20:23:16;92026.25;;;6.03;100.00
71057;BME280;58380;48.312;9.246;2024-03-02T20:26:17;92040.91;;;6.10;100.00
71057;BME280;58380;48.312;9.246;2024-03-02T20:29:18;92028.34;;;6.07;100.00
71057;BME280;58380;48.312;9.246;2024-03-02T20:32:18;92024.69;;;6.02;100.00
71057;BME280;58380;48.312;9.246;2024-03-02T20:35:20;92034.63;;;6.05;100.00
71057;BME280;58380;48.312;9.246;2024-03-02T20:38:20;92035.44;;;5.96;100.00
71057;BME280;58380;48.312;9.246;2024-03-02T20:41:20;92017.91;;;5.81;100.00
71057;BME280;58380;48.312;9.246;2024-03-02T20:44:21;92030.97;;;5.91;100.00
71057;BME280;58380;48.312;9.246;2024-03-02T20:47:21;92032.81;;;5.91;100.00
71057;BME280;58380;48.312;9.246;2024-03-02T20:50:22;92045.66;;;5.92;100.00
71057;BME280;58380;48.312;9.246;2024-03-02T20:53:23;92016.41;;;5.70;100.00
71057;BME280;58380;48.312;9.246;2024-03-02T20:56:23;92017.69;;;5.77;100.00
71057;BME280;58380;48.312;9.246;2024-03-02T20:59:24;92029.44;;;5.85;100.00
71057;BME280;58380;48.312;9.246;2024-03-02T21:02:27;92022.41;;;5.75;100.00
71057;BME280;58380;48.312;9.246;2024-03-02T21:05:28;92009.84;;;5.72;100.00
71057;BME280;58380;48.312;9.246;2024-03-02T21:08:28;92013.78;;;5.70;100.00
71057;BME280;58380;48.312;9.246;2024-03-02T21:11:28;92003.34;;;5.59;100.00
71057;BME280;58380;48.312;9.246;2024-03-02T21:14:29;92026.59;;;5.71;100.00
71057;BME280;58380;48.312;9.246;2024-03-02T21:17:30;92016.69;;;5.58;100.00
71057;BME280;58380;48.312;9.246;2024-03-02T21:20:30;92008.84;;;5.53;100.00
71057;BME280;58380;48.312;9.246;2024-03-02T21:23:30;92012.03;;;5.45;100.00
71057;BME280;58380;48.312;9.246;2024-03-02T21:26:39;92010.69;;;5.52;100.00
71057;BME280;58380;48.312;9.246;2024-03-02T21:29:41;92020.38;;;5.52;100.00
71057;BME280;58380;48.312;9.246;2024-03-02T21:32:41;92020.63;;;5.50;100.00
71057;BME280;58380;48.312;9.246;2024-03-02T21:35:42;92024.84;;;5.41;100.00
71057;BME280;58380;48.312;9.246;2024-03-02T21:38:43;91994.25;;;5.21;100.00
71057;BME280;58380;48.312;9.246;2024-03-02T21:41:43;92023.00;;;5.36;100.00
71057;BME280;58380;48.312;9.246;2024-03-02T21:44:44;92012.84;;;5.25;100.00
71057;BME280;58380;48.312;9.246;2024-03-02T21:47:45;92028.53;;;5.30;100.00
71057;BME280;58380;48.312;9.246;2024-03-02T21:50:46;92004.72;;;5.21;100.00
71057;BME280;58380;48.312;9.246;2024-03-02T21:53:46;92012.84;;;5.30;100.00
71057;BME280;58380;48.312;9.246;2024-03-02T21:56:47;92025.41;;;5.28;100.00
71057;BME280;58380;48.312;9.246;2024-03-02T21:59:47;91997.69;;;5.11;100.00
71057;BME280;58380;48.312;9.246;2024-03-02T22:02:48;91996.13;;;5.15;100.00
71057;BME280;58380;48.312;9.246;2024-03-02T22:05:48;92002.38;;;5.30;100.00
71057;BME280;58380;48.312;9.246;2024-03-02T22:08:49;91991.13;;;5.29;100.00
71057;BME280;58380;48.312;9.246;2024-03-02T22:11:49;91991.91;;;5.25;100.00
71057;BME280;58380;48.312;9.246;2024-03-02T22:14:50;91973.13;;;5.12;100.00
71057;BME280;58380;48.312;9.246;2024-03-02T22:17:50;91984.59;;;5.27;100.00
71057;BME280;58380;48.312;9.246;2024-03-02T22:20:51;91982.78;;;5.17;100.00
71057;BME280;58380;48.312;9.246;2024-03-02T22:23:51;91996.38;;;5.24;100.00
71057;BME280;58380;48.312;9.246;2024-03-02T22:26:52;92005.53;;;5.27;100.00
71057;BME280;58380;48.312;9.246;2024-03-02T22:29:52;91984.59;;;5.11;100.00
71057;BME280;58380;48.312;9.246;2024-03-02T22:32:53;91979.66;;;5.10;100.00
